logo
Search for airport 
image banner adimage banner adimage banner ad
image banner ad

FLFF - Fairfields

Located in Kambwiri, Zambia

ICAO - , IATA -

Data provided by Airmate  

General information

Coordinates: S12°51'50" E30°10'37"
Elevation is 4323 feet MSL.
Magnetic variation is -4° East
View others Airports in Northern Province

Operational data

Special qualification required
Current time UTC:
Current local time:
Weather at : - ( 0 km )
METAR: PABL 130641Z AUTO VRB06KT 3/4SM -SN BR CLR M13/M15 A2989 RMK AO2 P0000 FZRANO $
View NOTAMs / SUP AIP / TFR affecting this airport [VIEW]
Communications frequencies: [VIEW]

Runways:

RWY identifierQFULength (ft)Width (ft)SurfaceLDA (ft)
1096°5257101DIRT
28276°5257101DIRT

Airport contact information

Address: Kambwiri Zambia

Satellite view of FLFF